sensor_id;sensor_type;location;lat;lon;timestamp;pressure;altitude;pressure_sealevel;temperature;humidity
42727;BME280;28372;56.832;60.658;2023-03-26T00:01:10;96771.06;;;10.47;41.67
42727;BME280;28372;56.832;60.658;2023-03-26T00:03:40;96775.34;;;10.37;42.16
42727;BME280;28372;56.832;60.658;2023-03-26T00:06:11;96762.63;;;10.30;41.87
42727;BME280;28372;56.832;60.658;2023-03-26T00:08:40;96766.88;;;10.31;41.95
42727;BME280;28372;56.832;60.658;2023-03-26T00:11:08;96752.22;;;10.28;41.61
42727;BME280;28372;56.832;60.658;2023-03-26T00:13:36;96754.13;;;10.32;41.73
42727;BME280;28372;56.832;60.658;2023-03-26T00:16:03;96760.72;;;10.23;42.74
42727;BME280;28372;56.832;60.658;2023-03-26T00:18:31;96765.75;;;10.18;42.04
42727;BME280;28372;56.832;60.658;2023-03-26T00:21:02;96770.06;;;10.11;43.07
42727;BME280;28372;56.832;60.658;2023-03-26T00:23:31;96770.44;;;10.03;43.21
42727;BME280;28372;56.832;60.658;2023-03-26T00:25:58;96760.47;;;9.96;42.97
42727;BME280;28372;56.832;60.658;2023-03-26T00:28:26;96766.63;;;9.97;42.13
42727;BME280;28372;56.832;60.658;2023-03-26T00:30:59;96761.97;;;10.04;42.32
42727;BME280;28372;56.832;60.658;2023-03-26T00:33:27;96765.81;;;10.07;42.16
42727;BME280;28372;56.832;60.658;2023-03-26T00:35:55;96756.94;;;10.10;42.21
42727;BME280;28372;56.832;60.658;2023-03-26T00:38:25;96747.38;;;9.91;44.11
42727;BME280;28372;56.832;60.658;2023-03-26T00:40:53;96740.06;;;9.88;43.23
42727;BME280;28372;56.832;60.658;2023-03-26T00:43:21;96732.72;;;9.88;43.49
42727;BME280;28372;56.832;60.658;2023-03-26T00:45:49;96726.50;;;9.95;42.97
42727;BME280;28372;56.832;60.658;2023-03-26T00:48:18;96723.41;;;10.00;42.46
42727;BME280;28372;56.832;60.658;2023-03-26T00:50:46;96716.03;;;10.08;42.50
42727;BME280;28372;56.832;60.658;2023-03-26T00:53:15;96724.47;;;10.14;42.41
42727;BME280;28372;56.832;60.658;2023-03-26T00:55:45;96719.47;;;10.08;42.94
42727;BME280;28372;56.832;60.658;2023-03-26T00:58:13;96709.81;;;10.11;42.61
42727;BME280;28372;56.832;60.658;2023-03-26T01:00:43;96708.31;;;10.06;42.72
42727;BME280;28372;56.832;60.658;2023-03-26T01:03:13;96706.03;;;10.01;43.22
42727;BME280;28372;56.832;60.658;2023-03-26T01:06:00;96711.06;;;9.95;42.95
42727;BME280;28372;56.832;60.658;2023-03-26T01:08:36;96709.22;;;9.78;46.25
42727;BME280;28372;56.832;60.658;2023-03-26T01:11:06;96703.03;;;9.81;44.06
42727;BME280;28372;56.832;60.658;2023-03-26T01:13:48;96703.47;;;9.72;44.09
42727;BME280;28372;56.832;60.658;2023-03-26T01:16:17;96695.00;;;9.67;46.50
42727;BME280;28372;56.832;60.658;2023-03-26T01:18:46;96688.88;;;9.55;44.52
42727;BME280;28372;56.832;60.658;2023-03-26T01:21:16;96692.69;;;9.58;43.83
42727;BME280;28372;56.832;60.658;2023-03-26T01:24:10;96685.00;;;9.64;43.87
42727;BME280;28372;56.832;60.658;2023-03-26T01:29:32;96675.78;;;9.54;44.37
42727;BME280;28372;56.832;60.658;2023-03-26T01:32:08;96684.25;;;9.56;44.21
42727;BME280;28372;56.832;60.658;2023-03-26T01:34:54;96680.78;;;9.48;44.15
42727;BME280;28372;56.832;60.658;2023-03-26T01:37:35;96678.09;;;9.48;43.97
42727;BME280;28372;56.832;60.658;2023-03-26T01:40:16;96664.56;;;9.59;44.70
42727;BME280;28372;56.832;60.658;2023-03-26T01:45:29;96665.34;;;9.56;44.62
42727;BME280;28372;56.832;60.658;2023-03-26T01:47:58;96661.09;;;9.55;44.34
42727;BME280;28372;56.832;60.658;2023-03-26T01:50:26;96650.69;;;9.57;44.77
42727;BME280;28372;56.832;60.658;2023-03-26T01:52:54;96663.00;;;9.58;45.70
42727;BME280;28372;56.832;60.658;2023-03-26T01:55:23;96638.34;;;9.59;44.78
42727;BME280;28372;56.832;60.658;2023-03-26T01:57:59;96642.25;;;9.48;46.31
42727;BME280;28372;56.832;60.658;2023-03-26T02:00:34;96641.47;;;9.43;47.71
42727;BME280;28372;56.832;60.658;2023-03-26T02:03:11;96643.41;;;9.50;45.73
42727;BME280;28372;56.832;60.658;2023-03-26T02:05:50;96634.06;;;9.66;45.43
42727;BME280;28372;56.832;60.658;2023-03-26T02:08:21;96631.72;;;9.68;45.44
42727;BME280;28372;56.832;60.658;2023-03-26T02:10:54;96629.03;;;9.68;45.33
42727;BME280;28372;56.832;60.658;2023-03-26T02:13:23;96611.28;;;9.70;45.17
42727;BME280;28372;56.832;60.658;2023-03-26T02:15:58;96616.28;;;9.75;45.30
42727;BME280;28372;56.832;60.658;2023-03-26T02:18:26;96610.47;;;9.77;45.55
42727;BME280;28372;56.832;60.658;2023-03-26T02:21:03;96605.88;;;9.74;45.61
42727;BME280;28372;56.832;60.658;2023-03-26T02:23:31;96604.31;;;9.76;45.56
42727;BME280;28372;56.832;60.658;2023-03-26T02:26:04;96604.28;;;9.84;45.73
42727;BME280;28372;56.832;60.658;2023-03-26T02:28:34;96613.53;;;9.86;45.03
42727;BME280;28372;56.832;60.658;2023-03-26T02:31:02;96612.72;;;9.89;45.37
42727;BME280;28372;56.832;60.658;2023-03-26T02:33:30;96615.47;;;9.82;46.07
42727;BME280;28372;56.832;60.658;2023-03-26T02:35:58;96616.59;;;9.88;45.37
42727;BME280;28372;56.832;60.658;2023-03-26T02:38:28;96610.03;;;9.86;45.66
42727;BME280;28372;56.832;60.658;2023-03-26T02:41:01;96608.44;;;9.95;44.78
42727;BME280;28372;56.832;60.658;2023-03-26T02:43:41;96610.31;;;10.06;45.51
42727;BME280;28372;56.832;60.658;2023-03-26T02:46:13;96617.16;;;10.14;45.25
42727;BME280;28372;56.832;60.658;2023-03-26T02:48:59;96605.94;;;10.19;45.34
42727;BME280;28372;56.832;60.658;2023-03-26T02:51:27;96608.25;;;10.24;44.90
42727;BME280;28372;56.832;60.658;2023-03-26T02:54:00;96604.75;;;10.24;45.07
42727;BME280;28372;56.832;60.658;2023-03-26T02:56:30;96608.53;;;10.34;44.99
42727;BME280;28372;56.832;60.658;2023-03-26T02:59:24;96607.00;;;10.40;45.21
42727;BME280;28372;56.832;60.658;2023-03-26T03:02:29;96596.09;;;10.47;45.27
42727;BME280;28372;56.832;60.658;2023-03-26T03:05:08;96603.88;;;10.45;45.54
42727;BME280;28372;56.832;60.658;2023-03-26T03:07:35;96603.81;;;10.49;45.18
42727;BME280;28372;56.832;60.658;2023-03-26T03:10:05;96599.16;;;10.53;45.55
42727;BME280;28372;56.832;60.658;2023-03-26T03:12:53;96593.34;;;10.54;45.15
42727;BME280;28372;56.832;60.658;2023-03-26T03:15:20;96593.72;;;10.56;45.82
42727;BME280;28372;56.832;60.658;2023-03-26T03:17:47;96604.16;;;10.54;45.48
42727;BME280;28372;56.832;60.658;2023-03-26T03:20:15;96614.22;;;10.54;45.78
42727;BME280;28372;56.832;60.658;2023-03-26T03:22:42;96611.09;;;10.55;45.72
42727;BME280;28372;56.832;60.658;2023-03-26T03:25:10;96618.00;;;10.60;45.74
42727;BME280;28372;56.832;60.658;2023-03-26T03:27:45;96622.25;;;10.61;45.48
42727;BME280;28372;56.832;60.658;2023-03-26T03:30:14;96629.94;;;10.66;45.47
42727;BME280;28372;56.832;60.658;2023-03-26T03:32:45;96636.88;;;10.67;45.75
42727;BME280;28372;56.832;60.658;2023-03-26T03:35:17;96633.00;;;10.68;45.31
42727;BME280;28372;56.832;60.658;2023-03-26T03:37:48;96633.81;;;10.65;45.79
42727;BME280;28372;56.832;60.658;2023-03-26T03:40:15;96639.22;;;10.65;46.80
42727;BME280;28372;56.832;60.658;2023-03-26T03:42:43;96620.97;;;10.73;45.52
42727;BME280;28372;56.832;60.658;2023-03-26T03:45:13;96626.78;;;10.71;45.65
42727;BME280;28372;56.832;60.658;2023-03-26T03:48:02;96626.38;;;10.73;45.33
42727;BME280;28372;56.832;60.658;2023-03-26T03:50:42;96623.25;;;10.78;45.64
42727;BME280;28372;56.832;60.658;2023-03-26T03:53:23;96636.44;;;10.72;45.74
42727;BME280;28372;56.832;60.658;2023-03-26T03:55:56;96637.97;;;10.73;45.89
42727;BME280;28372;56.832;60.658;2023-03-26T03:58:38;96636.78;;;10.74;45.74
42727;BME280;28372;56.832;60.658;2023-03-26T04:01:12;96641.44;;;10.74;46.76
42727;BME280;28372;56.832;60.658;2023-03-26T04:03:52;96641.75;;;10.83;45.62
42727;BME280;28372;56.832;60.658;2023-03-26T04:06:23;96633.25;;;10.81;46.97
42727;BME280;28372;56.832;60.658;2023-03-26T04:08:52;96636.28;;;10.90;45.79
42727;BME280;28372;56.832;60.658;2023-03-26T04:11:21;96646.69;;;10.92;45.82
42727;BME280;28372;56.832;60.658;2023-03-26T04:14:14;96639.34;;;10.92;45.45
42727;BME280;28372;56.832;60.658;2023-03-26T04:17:03;96650.94;;;10.93;45.72
42727;BME280;28372;56.832;60.658;2023-03-26T04:19:35;96649.72;;;10.97;45.62
42727;BME280;28372;56.832;60.658;2023-03-26T04:22:06;96640.47;;;10.95;45.46
42727;BME280;28372;56.832;60.658;2023-03-26T04:24:39;96643.16;;;10.99;45.58
42727;BME280;28372;56.832;60.658;2023-03-26T04:27:31;96640.78;;;11.04;45.51
42727;BME280;28372;56.832;60.658;2023-03-26T04:30:13;96644.25;;;11.05;45.47
42727;BME280;28372;56.832;60.658;2023-03-26T04:32:42;96646.94;;;11.05;45.25
42727;BME280;28372;56.832;60.658;2023-03-26T04:35:12;96665.88;;;11.08;45.53
42727;BME280;28372;56.832;60.658;2023-03-26T04:37:42;96644.22;;;11.08;45.90
42727;BME280;28372;56.832;60.658;2023-03-26T04:40:16;96657.34;;;11.10;45.20
42727;BME280;28372;56.832;60.658;2023-03-26T04:42:57;96655.38;;;11.10;45.65
42727;BME280;28372;56.832;60.658;2023-03-26T04:45:48;96658.81;;;11.14;45.77
42727;BME280;28372;56.832;60.658;2023-03-26T04:48:17;96656.19;;;11.11;45.45
42727;BME280;28372;56.832;60.658;2023-03-26T04:50:46;96667.75;;;11.11;45.79
42727;BME280;28372;56.832;60.658;2023-03-26T04:53:19;96668.16;;;11.10;45.22
42727;BME280;28372;56.832;60.658;2023-03-26T04:59:34;96684.00;;;11.11;45.82
42727;BME280;28372;56.832;60.658;2023-03-26T05:02:07;96675.50;;;11.09;45.72
42727;BME280;28372;56.832;60.658;2023-03-26T05:04:51;96682.03;;;11.16;45.52
42727;BME280;28372;56.832;60.658;2023-03-26T05:07:20;96676.59;;;11.16;46.03
42727;BME280;28372;56.832;60.658;2023-03-26T05:09:55;96672.69;;;11.20;45.47
42727;BME280;28372;56.832;60.658;2023-03-26T05:12:40;96673.41;;;11.24;45.31
42727;BME280;28372;56.832;60.658;2023-03-26T05:15:12;96678.06;;;11.24;45.21
42727;BME280;28372;56.832;60.658;2023-03-26T05:18:03;96683.91;;;11.22;45.37
42727;BME280;28372;56.832;60.658;2023-03-26T05:20:40;96684.22;;;11.28;46.02
42727;BME280;28372;56.832;60.658;2023-03-26T05:23:08;96681.47;;;11.31;45.77
42727;BME280;28372;56.832;60.658;2023-03-26T05:25:42;96688.41;;;11.32;45.78
42727;BME280;28372;56.832;60.658;2023-03-26T05:28:14;96691.47;;;11.35;45.46
42727;BME280;28372;56.832;60.658;2023-03-26T05:30:58;96687.56;;;11.39;45.69
42727;BME280;28372;56.832;60.658;2023-03-26T05:33:31;96692.28;;;11.31;46.04
42727;BME280;28372;56.832;60.658;2023-03-26T05:36:07;96694.56;;;11.37;45.68
42727;BME280;28372;56.832;60.658;2023-03-26T05:38:35;96685.22;;;11.41;45.79
42727;BME280;28372;56.832;60.658;2023-03-26T05:41:06;96690.63;;;11.45;45.78
42727;BME280;28372;56.832;60.658;2023-03-26T05:43:36;96690.22;;;11.43;45.83
42727;BME280;28372;56.832;60.658;2023-03-26T05:46:12;96701.03;;;11.46;45.49
42727;BME280;28372;56.832;60.658;2023-03-26T05:48:40;96695.63;;;11.46;46.19
42727;BME280;28372;56.832;60.658;2023-03-26T05:51:08;96695.22;;;11.48;45.20
42727;BME280;28372;56.832;60.658;2023-03-26T05:53:40;96699.09;;;11.47;45.51
42727;BME280;28372;56.832;60.658;2023-03-26T05:56:26;96691.75;;;11.47;46.31
42727;BME280;28372;56.832;60.658;2023-03-26T05:59:32;96694.00;;;11.53;45.64
42727;BME280;28372;56.832;60.658;2023-03-26T06:02:37;96695.22;;;11.48;47.65
42727;BME280;28372;56.832;60.658;2023-03-26T06:05:27;96694.00;;;11.53;45.77
42727;BME280;28372;56.832;60.658;2023-03-26T06:08:10;96693.16;;;11.59;45.66
42727;BME280;28372;56.832;60.658;2023-03-26T06:10:38;96702.34;;;11.65;45.59
42727;BME280;28372;56.832;60.658;2023-03-26T06:13:06;96696.50;;;11.71;45.87
42727;BME280;28372;56.832;60.658;2023-03-26T06:15:37;96692.66;;;11.68;47.77
42727;BME280;28372;56.832;60.658;2023-03-26T06:18:23;96698.06;;;11.68;45.99
42727;BME280;28372;56.832;60.658;2023-03-26T06:21:07;96683.78;;;11.68;45.91
42727;BME280;28372;56.832;60.658;2023-03-26T06:23:43;96694.91;;;11.73;45.95
42727;BME280;28372;56.832;60.658;2023-03-26T06:26:30;96697.59;;;11.77;45.74
42727;BME280;28372;56.832;60.658;2023-03-26T06:29:36;96693.69;;;11.78;45.56
42727;BME280;28372;56.832;60.658;2023-03-26T06:32:14;96689.81;;;11.79;45.75
42727;BME280;28372;56.832;60.658;2023-03-26T06:34:57;96696.38;;;11.81;45.70
42727;BME280;28372;56.832;60.658;2023-03-26T06:37:25;96697.13;;;11.82;45.67
42727;BME280;28372;56.832;60.658;2023-03-26T06:39:57;96704.50;;;11.81;45.81
42727;BME280;28372;56.832;60.658;2023-03-26T06:42:53;96713.44;;;11.78;46.08
42727;BME280;28372;56.832;60.658;2023-03-26T06:46:14;96721.16;;;11.80;45.68
42727;BME280;28372;56.832;60.658;2023-03-26T06:48:51;96714.19;;;11.79;45.92
42727;BME280;28372;56.832;60.658;2023-03-26T06:51:39;96720.38;;;11.79;46.04
42727;BME280;28372;56.832;60.658;2023-03-26T06:54:33;96708.28;;;11.88;45.88
42727;BME280;28372;56.832;60.658;2023-03-26T06:57:08;96705.97;;;11.86;46.01
42727;BME280;28372;56.832;60.658;2023-03-26T07:00:11;96716.78;;;11.90;45.83
42727;BME280;28372;56.832;60.658;2023-03-26T07:02:57;96724.91;;;11.90;47.52
42727;BME280;28372;56.832;60.658;2023-03-26T07:05:48;96719.53;;;11.86;50.15
42727;BME280;28372;56.832;60.658;2023-03-26T07:08:34;96716.72;;;11.97;47.25
42727;BME280;28372;56.832;60.658;2023-03-26T07:11:23;96719.03;;;11.98;47.02
42727;BME280;28372;56.832;60.658;2023-03-26T07:14:15;96718.16;;;12.05;47.13
42727;BME280;28372;56.832;60.658;2023-03-26T07:16:50;96720.88;;;12.05;47.24
42727;BME280;28372;56.832;60.658;2023-03-26T07:19:52;96724.31;;;12.09;47.00
42727;BME280;28372;56.832;60.658;2023-03-26T07:22:24;96734.69;;;12.14;47.30
42727;BME280;28372;56.832;60.658;2023-03-26T07:25:11;96739.69;;;12.16;47.10
42727;BME280;28372;56.832;60.658;2023-03-26T07:28:29;96747.06;;;12.15;46.65
42727;BME280;28372;56.832;60.658;2023-03-26T07:34:16;96733.41;;;12.23;47.39
42727;BME280;28372;56.832;60.658;2023-03-26T07:37:04;96746.09;;;12.29;47.02
42727;BME280;28372;56.832;60.658;2023-03-26T07:42:53;96736.53;;;12.21;47.93
42727;BME280;28372;56.832;60.658;2023-03-26T07:45:42;96743.09;;;12.24;48.06
42727;BME280;28372;56.832;60.658;2023-03-26T07:48:43;96739.88;;;12.32;47.63
42727;BME280;28372;56.832;60.658;2023-03-26T07:51:39;96738.28;;;12.35;47.08
42727;BME280;28372;56.832;60.658;2023-03-26T07:54:12;96740.16;;;12.38;47.05
42727;BME280;28372;56.832;60.658;2023-03-26T07:57:04;96744.00;;;12.41;47.23
42727;BME280;28372;56.832;60.658;2023-03-26T08:00:16;96748.56;;;12.47;46.71
42727;BME280;28372;56.832;60.658;2023-03-26T08:05:45;96750.00;;;12.56;46.61
42727;BME280;28372;56.832;60.658;2023-03-26T08:11:34;96744.78;;;12.68;49.87
42727;BME280;28372;56.832;60.658;2023-03-26T08:17:04;96751.97;;;12.79;46.44
42727;BME280;28372;56.832;60.658;2023-03-26T08:22:14;96737.84;;;12.91;46.44
42727;BME280;28372;56.832;60.658;2023-03-26T08:32:24;96747.03;;;12.97;46.29
42727;BME280;28372;56.832;60.658;2023-03-26T08:34:51;96740.00;;;13.00;46.59
42727;BME280;28372;56.832;60.658;2023-03-26T08:37:19;96752.00;;;13.02;46.27
42727;BME280;28372;56.832;60.658;2023-03-26T08:39:46;96746.53;;;13.06;46.32
42727;BME280;28372;56.832;60.658;2023-03-26T09:19:39;96747.53;;;13.40;45.79
42727;BME280;28372;56.832;60.658;2023-03-26T09:22:36;96741.69;;;13.41;46.02
42727;BME280;28372;56.832;60.658;2023-03-26T09:25:13;96752.47;;;13.45;45.92
42727;BME280;28372;56.832;60.658;2023-03-26T09:27:55;96746.28;;;13.44;45.96
42727;BME280;28372;56.832;60.658;2023-03-26T09:38:45;96767.41;;;13.57;45.68
42727;BME280;28372;56.832;60.658;2023-03-26T09:44:07;96780.16;;;13.60;45.70
42727;BME280;28372;56.832;60.658;2023-03-26T09:52:19;96812.09;;;13.52;48.04
42727;BME280;28372;56.832;60.658;2023-03-26T09:55:04;96802.78;;;13.53;47.60
42727;BME280;28372;56.832;60.658;2023-03-26T09:57:48;96806.19;;;13.57;46.46
42727;BME280;28372;56.832;60.658;2023-03-26T10:18:47;96815.09;;;13.58;45.46
42727;BME280;28372;56.832;60.658;2023-03-26T10:24:03;96819.78;;;13.57;45.43
42727;BME280;28372;56.832;60.658;2023-03-26T10:34:25;96821.66;;;13.60;45.18
42727;BME280;28372;56.832;60.658;2023-03-26T10:42:19;96819.47;;;13.51;45.52
42727;BME280;28372;56.832;60.658;2023-03-26T10:53:14;96812.59;;;13.47;46.24
42727;BME280;28372;56.832;60.658;2023-03-26T10:55:39;96832.03;;;13.45;45.72
42727;BME280;28372;56.832;60.658;2023-03-26T11:00:36;96830.53;;;13.41;45.32
42727;BME280;28372;56.832;60.658;2023-03-26T11:14:09;96834.50;;;13.32;45.40
42727;BME280;28372;56.832;60.658;2023-03-26T11:19:21;96840.22;;;13.42;45.41
42727;BME280;28372;56.832;60.658;2023-03-26T11:22:07;96847.22;;;13.39;45.11
42727;BME280;28372;56.832;60.658;2023-03-26T11:27:38;96839.47;;;13.41;45.29
42727;BME280;28372;56.832;60.658;2023-03-26T11:32:44;96851.13;;;13.38;44.86
42727;BME280;28372;56.832;60.658;2023-03-26T11:35:18;96857.69;;;13.41;45.24
42727;BME280;28372;56.832;60.658;2023-03-26T11:40:48;96850.78;;;13.32;46.05
42727;BME280;28372;56.832;60.658;2023-03-26T11:43:42;96849.31;;;13.28;45.41
42727;BME280;28372;56.832;60.658;2023-03-26T11:46:29;96857.47;;;13.28;45.28
42727;BME280;28372;56.832;60.658;2023-03-26T11:49:04;96849.69;;;13.30;45.21
42727;BME280;28372;56.832;60.658;2023-03-26T11:51:38;96864.78;;;13.31;45.26
42727;BME280;28372;56.832;60.658;2023-03-26T11:54:06;96873.41;;;13.26;45.89
42727;BME280;28372;56.832;60.658;2023-03-26T11:56:40;96871.00;;;13.31;45.34
42727;BME280;28372;56.832;60.658;2023-03-26T11:59:35;96878.78;;;13.29;45.32
42727;BME280;28372;56.832;60.658;2023-03-26T12:02:29;96875.31;;;13.29;45.04
42727;BME280;28372;56.832;60.658;2023-03-26T12:07:48;96884.28;;;13.26;44.95
42727;BME280;28372;56.832;60.658;2023-03-26T12:10:22;96877.63;;;13.30;45.04
42727;BME280;28372;56.832;60.658;2023-03-26T12:12:55;96870.72;;;13.26;45.22
42727;BME280;28372;56.832;60.658;2023-03-26T12:15:24;96880.84;;;13.22;45.90
42727;BME280;28372;56.832;60.658;2023-03-26T12:17:53;96881.69;;;13.18;45.24
42727;BME280;28372;56.832;60.658;2023-03-26T12:22:53;96880.97;;;13.14;44.84
42727;BME280;28372;56.832;60.658;2023-03-26T12:28:00;96874.00;;;13.13;45.22
42727;BME280;28372;56.832;60.658;2023-03-26T12:30:29;96874.81;;;13.10;44.99
42727;BME280;28372;56.832;60.658;2023-03-26T12:32:58;96878.63;;;13.13;45.15
42727;BME280;28372;56.832;60.658;2023-03-26T12:35:33;96887.19;;;13.11;44.94
42727;BME280;28372;56.832;60.658;2023-03-26T12:40:41;96897.34;;;13.07;45.30
42727;BME280;28372;56.832;60.658;2023-03-26T12:49:08;96917.22;;;13.00;46.00
42727;BME280;28372;56.832;60.658;2023-03-26T12:59:47;96915.41;;;12.90;45.77
42727;BME280;28372;56.832;60.658;2023-03-26T13:04:50;96922.69;;;12.97;45.35
42727;BME280;28372;56.832;60.658;2023-03-26T13:15:31;96941.50;;;12.80;45.46
42727;BME280;28372;56.832;60.658;2023-03-26T13:23:48;96944.78;;;12.68;48.27
42727;BME280;28372;56.832;60.658;2023-03-26T13:43:07;96945.72;;;12.50;46.37
42727;BME280;28372;56.832;60.658;2023-03-26T13:48:10;96953.53;;;12.48;47.17
42727;BME280;28372;56.832;60.658;2023-03-26T13:50:40;96946.56;;;12.47;48.81
42727;BME280;28372;56.832;60.658;2023-03-26T13:53:24;96947.72;;;12.46;46.71
42727;BME280;28372;56.832;60.658;2023-03-26T13:55:54;96954.72;;;12.44;50.41
42727;BME280;28372;56.832;60.658;2023-03-26T14:01:03;96969.50;;;12.36;51.16
42727;BME280;28372;56.832;60.658;2023-03-26T14:06:30;96966.38;;;12.41;47.35
42727;BME280;28372;56.832;60.658;2023-03-26T14:09:08;96970.25;;;12.40;50.57
42727;BME280;28372;56.832;60.658;2023-03-26T14:14:10;96967.53;;;12.40;49.96
42727;BME280;28372;56.832;60.658;2023-03-26T14:16:44;96971.81;;;12.37;48.61
42727;BME280;28372;56.832;60.658;2023-03-26T14:21:54;96961.78;;;12.34;47.30
42727;BME280;28372;56.832;60.658;2023-03-26T14:38:05;96979.28;;;12.26;49.54
42727;BME280;28372;56.832;60.658;2023-03-26T14:53:49;96994.53;;;12.12;48.15
42727;BME280;28372;56.832;60.658;2023-03-26T14:56:23;96995.28;;;12.13;48.28
42727;BME280;28372;56.832;60.658;2023-03-26T15:01:28;97004.56;;;12.15;46.86
42727;BME280;28372;56.832;60.658;2023-03-26T15:11:48;97016.56;;;12.14;46.42
42727;BME280;28372;56.832;60.658;2023-03-26T15:38:05;97036.47;;;11.93;55.69
42727;BME280;28372;56.832;60.658;2023-03-26T15:43:12;97035.78;;;11.82;57.28
42727;BME280;28372;56.832;60.658;2023-03-26T15:45:41;97032.75;;;11.73;58.11
42727;BME280;28372;56.832;60.658;2023-03-26T15:55:40;97048.50;;;11.92;52.89
42727;BME280;28372;56.832;60.658;2023-03-26T15:58:23;97055.41;;;12.00;52.05
42727;BME280;28372;56.832;60.658;2023-03-26T16:03:43;97051.50;;;12.05;49.32
42727;BME280;28372;56.832;60.658;2023-03-26T16:14:37;97059.66;;;12.05;49.79
42727;BME280;28372;56.832;60.658;2023-03-26T16:17:17;97057.69;;;12.06;48.96
42727;BME280;28372;56.832;60.658;2023-03-26T16:20:30;97066.97;;;12.08;48.04
42727;BME280;28372;56.832;60.658;2023-03-26T16:22:59;97063.50;;;12.08;50.70
42727;BME280;28372;56.832;60.658;2023-03-26T16:25:30;97066.59;;;12.06;53.34
42727;BME280;28372;56.832;60.658;2023-03-26T16:30:34;97075.91;;;12.05;49.06
42727;BME280;28372;56.832;60.658;2023-03-26T16:33:12;97075.91;;;12.05;48.80
42727;BME280;28372;56.832;60.658;2023-03-26T16:38:22;97080.13;;;12.06;48.38
42727;BME280;28372;56.832;60.658;2023-03-26T16:41:01;97079.78;;;12.08;47.71
42727;BME280;28372;56.832;60.658;2023-03-26T16:46:15;97078.97;;;12.11;47.52
42727;BME280;28372;56.832;60.658;2023-03-26T16:48:54;97087.84;;;12.11;47.24
42727;BME280;28372;56.832;60.658;2023-03-26T16:51:32;97079.38;;;12.09;48.13
42727;BME280;28372;56.832;60.658;2023-03-26T16:57:17;97087.50;;;12.09;48.33
42727;BME280;28372;56.832;60.658;2023-03-26T17:02:21;97090.22;;;12.09;48.03
42727;BME280;28372;56.832;60.658;2023-03-26T17:04:56;97091.72;;;12.10;46.92
42727;BME280;28372;56.832;60.658;2023-03-26T17:07:43;97084.00;;;12.09;47.11
42727;BME280;28372;56.832;60.658;2023-03-26T17:10:18;97084.38;;;12.11;46.88
42727;BME280;28372;56.832;60.658;2023-03-26T17:12:54;97085.94;;;12.08;47.25
42727;BME280;28372;56.832;60.658;2023-03-26T17:25:41;97085.13;;;12.15;47.28
42727;BME280;28372;56.832;60.658;2023-03-26T17:33:34;97090.50;;;12.19;47.25
42727;BME280;28372;56.832;60.658;2023-03-26T17:41:11;97099.84;;;12.14;46.93
42727;BME280;28372;56.832;60.658;2023-03-26T17:43:49;97100.25;;;12.12;46.90
42727;BME280;28372;56.832;60.658;2023-03-26T17:51:35;97099.09;;;12.10;47.45
42727;BME280;28372;56.832;60.658;2023-03-26T17:54:07;97090.56;;;12.15;47.36
42727;BME280;28372;56.832;60.658;2023-03-26T17:56:40;97094.44;;;12.14;47.18
42727;BME280;28372;56.832;60.658;2023-03-26T17:59:09;97100.66;;;12.11;48.34
42727;BME280;28372;56.832;60.658;2023-03-26T18:01:42;97094.81;;;12.12;48.31
42727;BME280;28372;56.832;60.658;2023-03-26T18:04:18;97095.56;;;12.16;47.52
42727;BME280;28372;56.832;60.658;2023-03-26T18:17:22;97102.13;;;12.19;47.53
42727;BME280;28372;56.832;60.658;2023-03-26T18:19:54;97108.72;;;12.18;47.59
42727;BME280;28372;56.832;60.658;2023-03-26T18:22:26;97110.28;;;12.19;47.63
42727;BME280;28372;56.832;60.658;2023-03-26T18:24:59;97113.75;;;12.16;48.30
42727;BME280;28372;56.832;60.658;2023-03-26T18:27:32;97114.94;;;12.15;47.79
42727;BME280;28372;56.832;60.658;2023-03-26T18:30:12;97121.91;;;12.16;47.76
42727;BME280;28372;56.832;60.658;2023-03-26T18:32:51;97123.84;;;12.19;47.71
42727;BME280;28372;56.832;60.658;2023-03-26T18:35:38;97120.38;;;12.15;47.95
42727;BME280;28372;56.832;60.658;2023-03-26T18:38:08;97125.00;;;12.14;47.72
42727;BME280;28372;56.832;60.658;2023-03-26T18:40:39;97118.06;;;12.13;47.83
42727;BME280;28372;56.832;60.658;2023-03-26T18:43:14;97121.91;;;12.16;47.78
42727;BME280;28372;56.832;60.658;2023-03-26T18:45:59;97123.47;;;12.13;47.76
42727;BME280;28372;56.832;60.658;2023-03-26T18:48:27;97122.28;;;12.18;47.88
42727;BME280;28372;56.832;60.658;2023-03-26T18:50:56;97126.19;;;12.13;48.83
42727;BME280;28372;56.832;60.658;2023-03-26T18:53:34;97132.78;;;12.12;48.22
42727;BME280;28372;56.832;60.658;2023-03-26T18:56:16;97137.41;;;12.12;47.77
42727;BME280;28372;56.832;60.658;2023-03-26T18:58:48;97134.69;;;12.12;47.72
42727;BME280;28372;56.832;60.658;2023-03-26T19:01:16;97133.53;;;12.13;47.65
42727;BME280;28372;56.832;60.658;2023-03-26T19:03:51;97130.88;;;12.09;49.62
42727;BME280;28372;56.832;60.658;2023-03-26T19:06:23;97128.91;;;12.13;47.97
42727;BME280;28372;56.832;60.658;2023-03-26T19:08:52;97129.25;;;12.19;47.83
42727;BME280;28372;56.832;60.658;2023-03-26T19:11:20;97133.88;;;12.19;47.89
42727;BME280;28372;56.832;60.658;2023-03-26T19:13:58;97135.44;;;12.16;47.87
42727;BME280;28372;56.832;60.658;2023-03-26T19:16:29;97132.38;;;12.18;47.73
42727;BME280;28372;56.832;60.658;2023-03-26T19:19:00;97130.44;;;12.14;47.96
42727;BME280;28372;56.832;60.658;2023-03-26T19:21:28;97127.34;;;12.12;47.54
42727;BME280;28372;56.832;60.658;2023-03-26T19:23:56;97142.09;;;12.08;51.00
42727;BME280;28372;56.832;60.658;2023-03-26T19:26:23;97140.97;;;12.05;49.76
42727;BME280;28372;56.832;60.658;2023-03-26T19:28:52;97140.16;;;12.05;48.51
42727;BME280;28372;56.832;60.658;2023-03-26T19:31:30;97133.59;;;12.06;48.13
42727;BME280;28372;56.832;60.658;2023-03-26T19:39:37;97146.78;;;12.04;48.16